createdAt,value
2022-11-25T00:00:22.349Z,108.55
2022-11-25T00:01:27.535Z,107.20
2022-11-25T00:02:30.357Z,112.25
2022-11-25T00:03:35.418Z,113.35
2022-11-25T00:04:39.388Z,100.60
2022-11-25T00:05:43.145Z,103.15
2022-11-25T00:06:45.906Z,104.80
2022-11-25T00:07:49.785Z,123.57
2022-11-25T00:08:54.852Z,112.00
2022-11-25T00:09:58.592Z,116.20
2022-11-25T00:11:01.387Z,122.55
2022-11-25T00:12:05.432Z,122.20
2022-11-25T00:13:09.637Z,128.40
2022-11-25T00:14:15.016Z,123.30
2022-11-25T00:15:17.739Z,122.13
2022-11-25T00:16:23.350Z,109.90
2022-11-25T00:17:26.129Z,100.85
2022-11-25T00:18:29.802Z,94.90
2022-11-25T00:19:33.888Z,99.78
2022-11-25T00:20:38.588Z,98.10
2022-11-25T00:21:42.821Z,124.30
2022-11-25T00:22:45.632Z,99.22
2022-11-25T00:23:53.456Z,110.95
2022-11-25T00:24:56.110Z,107.07
2022-11-25T00:26:00.079Z,108.43
2022-11-25T00:27:05.219Z,112.80
2022-11-25T00:28:11.881Z,94.47
2022-11-25T00:29:15.600Z,104.65
2022-11-25T00:30:18.350Z,102.85
2022-11-25T00:31:23.805Z,107.13
2022-11-25T00:32:26.795Z,110.50
2022-11-25T00:33:30.690Z,121.40
2022-11-25T00:34:33.732Z,111.57
2022-11-25T00:35:37.629Z,114.20
2022-11-25T00:36:40.429Z,128.18
2022-11-25T00:37:44.183Z,135.65
2022-11-25T00:38:47.187Z,147.90
2022-11-25T00:39:51.042Z,125.75
2022-11-25T00:41:15.086Z,117.10
2022-11-25T00:42:35.839Z,115.22
2022-11-25T00:43:58.397Z,104.80
2022-11-25T00:45:02.394Z,99.75
2022-11-25T00:46:05.575Z,118.68
2022-11-25T00:47:11.308Z,116.05
2022-11-25T00:48:14.045Z,115.30
2022-11-25T00:49:18.809Z,112.97
2022-11-25T00:50:23.019Z,107.30
2022-11-25T00:51:25.758Z,122.72
2022-11-25T00:52:29.559Z,131.55
2022-11-25T00:53:32.352Z,122.15
2022-11-25T00:54:36.553Z,127.88
2022-11-25T00:55:54.180Z,130.40
2022-11-25T00:56:57.956Z,109.35
2022-11-25T00:58:00.732Z,113.15
2022-11-25T00:59:06.249Z,118.75
2022-11-25T01:00:11.736Z,119.82
2022-11-25T01:01:17.914Z,126.97
2022-11-25T01:02:20.735Z,139.10
2022-11-25T01:03:24.491Z,135.35
2022-11-25T01:04:29.461Z,147.23
2022-11-25T01:05:33.174Z,151.00
2022-11-25T01:06:38.720Z,137.45
2022-11-25T01:07:42.512Z,145.63
2022-11-25T01:08:45.317Z,124.28
2022-11-25T01:09:49.408Z,127.35
2022-11-25T01:10:59.058Z,160.32
2022-11-25T01:12:02.845Z,150.90
2022-11-25T01:13:06.574Z,121.60
2022-11-25T01:14:13.913Z,155.90
2022-11-25T01:15:16.700Z,158.02
2022-11-25T01:16:21.389Z,163.30
2022-11-25T01:17:24.140Z,171.63
2022-11-25T01:18:31.141Z,122.78
2022-11-25T01:19:38.551Z,156.10
2022-11-25T01:20:41.247Z,153.82
2022-11-25T01:21:45.151Z,146.55
2022-11-25T01:22:47.807Z,140.65
2022-11-25T01:23:52.150Z,137.68
2022-11-25T01:24:55.911Z,153.15
2022-11-25T01:26:02.205Z,152.82
2022-11-25T01:27:06.055Z,164.05
2022-11-25T01:28:08.740Z,144.73
2022-11-25T01:29:17.236Z,161.00
2022-11-25T01:30:19.988Z,143.05
2022-11-25T01:31:25.229Z,172.10
2022-11-25T01:32:28.631Z,178.38
2022-11-25T01:33:33.643Z,192.30
2022-11-25T01:34:37.856Z,150.27
2022-11-25T01:35:41.051Z,144.05
2022-11-25T01:36:45.141Z,156.70
2022-11-25T01:37:47.899Z,156.80
2022-11-25T01:38:52.762Z,166.20
2022-11-25T01:39:55.537Z,141.77
2022-11-25T01:40:59.691Z,150.73
2022-11-25T01:42:03.729Z,131.93
2022-11-25T01:43:10.711Z,134.48
2022-11-25T01:44:18.167Z,181.57
2022-11-25T01:45:35.076Z,159.98
2022-11-25T01:47:00.458Z,133.93
2022-11-25T01:48:09.565Z,153.63
2022-11-25T01:49:16.944Z,154.38
2022-11-25T01:50:22.465Z,143.82
2022-11-25T01:51:29.224Z,125.85
2022-11-25T01:52:34.846Z,164.95
2022-11-25T01:53:37.556Z,150.93
2022-11-25T01:54:45.974Z,159.10
2022-11-25T01:55:56.280Z,155.50
2022-11-25T01:57:02.756Z,160.40
2022-11-25T01:58:07.555Z,138.23
2022-11-25T01:59:11.396Z,167.68
2022-11-25T02:00:16.756Z,175.07
2022-11-25T02:01:26.319Z,131.40
2022-11-25T02:02:31.500Z,175.60
2022-11-25T02:03:39.046Z,158.57
2022-11-25T02:04:42.351Z,121.80
2022-11-25T02:05:51.049Z,168.23
2022-11-25T02:06:58.130Z,176.15
2022-11-25T02:08:02.373Z,186.25
2022-11-25T02:09:06.938Z,135.40
2022-11-25T02:10:14.103Z,149.38
2022-11-25T02:11:20.196Z,181.90
2022-11-25T02:12:24.067Z,130.68
2022-11-25T02:13:26.994Z,147.27
2022-11-25T02:14:30.824Z,145.18
2022-11-25T02:15:35.563Z,166.68
2022-11-25T02:16:41.200Z,172.73
2022-11-25T02:17:44.944Z,176.18
2022-11-25T02:18:48.776Z,154.70
2022-11-25T02:19:59.758Z,145.68
2022-11-25T02:21:05.551Z,125.07
2022-11-25T02:22:11.218Z,147.75
2022-11-25T02:23:25.908Z,160.30
2022-11-25T02:24:35.509Z,150.48
2022-11-25T02:25:42.086Z,157.68
2022-11-25T02:26:49.136Z,115.03
2022-11-25T02:27:55.884Z,163.75
2022-11-25T02:28:59.666Z,170.82
2022-11-25T02:30:02.464Z,175.60
2022-11-25T02:31:07.984Z,163.50
2022-11-25T02:32:12.445Z,161.20
2022-11-25T02:33:17.530Z,153.82
2022-11-25T02:34:20.305Z,161.93
2022-11-25T02:35:36.410Z,153.02
2022-11-25T02:36:39.158Z,137.73
2022-11-25T02:37:43.749Z,162.27
2022-11-25T02:38:48.726Z,164.00
2022-11-25T02:39:53.598Z,146.82
2022-11-25T02:41:01.605Z,159.90
2022-11-25T02:42:05.837Z,148.35
2022-11-25T02:43:09.393Z,120.18
2022-11-25T02:44:13.206Z,128.73
2022-11-25T02:45:18.607Z,151.55
2022-11-25T02:46:24.681Z,151.82
2022-11-25T02:47:27.499Z,120.85
2022-11-25T02:49:06.834Z,122.00
2022-11-25T02:49:56.340Z,147.27
2022-11-25T02:51:00.276Z,134.65
2022-11-25T02:52:03.078Z,147.18
2022-11-25T02:53:06.886Z,144.60
2022-11-25T02:54:09.939Z,138.75
2022-11-25T02:55:13.981Z,129.85
2022-11-25T02:56:19.570Z,127.10
2022-11-25T02:57:23.379Z,127.35
2022-11-25T02:58:26.064Z,109.57
2022-11-25T02:59:30.238Z,110.88
2022-11-25T03:00:32.996Z,101.47
2022-11-25T03:01:38.531Z,113.78
2022-11-25T03:02:43.271Z,99.22
2022-11-25T03:03:46.999Z,110.85
2022-11-25T03:04:49.828Z,117.70
2022-11-25T03:05:56.290Z,105.90
2022-11-25T03:07:00.737Z,114.13
2022-11-25T03:08:05.469Z,123.20
2022-11-25T03:09:12.440Z,116.28
2022-11-25T03:10:17.024Z,108.47
2022-11-25T03:11:21.360Z,110.05
2022-11-25T03:12:24.067Z,110.28
2022-11-25T03:13:30.128Z,95.95
2022-11-25T03:14:33.216Z,95.45
2022-11-25T03:15:37.895Z,101.72
2022-11-25T03:16:40.814Z,100.60
2022-11-25T03:17:44.799Z,101.15
2022-11-25T03:18:47.508Z,90.03
2022-11-25T03:19:52.587Z,99.90
2022-11-25T03:20:55.716Z,93.15
2022-11-25T03:22:01.370Z,93.82
2022-11-25T03:23:06.179Z,106.00
2022-11-25T03:24:08.950Z,106.68
2022-11-25T03:25:13.290Z,101.03
2022-11-25T03:26:16.608Z,95.95
2022-11-25T03:27:21.737Z,101.25
2022-11-25T03:28:24.496Z,97.45
2022-11-25T03:29:28.365Z,103.45
2022-11-25T03:30:32.909Z,109.47
2022-11-25T03:31:38.886Z,109.32
2022-11-25T03:32:45.227Z,84.40
2022-11-25T03:33:49.674Z,98.95
2022-11-25T03:34:52.470Z,91.63
2022-11-25T03:35:56.301Z,94.85
2022-11-25T03:36:59.174Z,90.90
2022-11-25T03:38:05.527Z,86.65
2022-11-25T03:39:11.681Z,91.00
2022-11-25T03:40:17.398Z,98.65
2022-11-25T03:41:20.737Z,91.05
2022-11-25T03:42:26.205Z,99.80
2022-11-25T03:43:30.799Z,86.95
2022-11-25T03:44:35.221Z,93.95
2022-11-25T03:45:39.142Z,101.53
2022-11-25T03:46:43.738Z,99.03
2022-11-25T03:47:48.819Z,92.65
2022-11-25T03:48:51.730Z,103.25
2022-11-25T03:49:55.949Z,103.03
2022-11-25T03:50:58.651Z,87.47
2022-11-25T03:52:04.609Z,98.25
2022-11-25T03:53:07.428Z,97.07
2022-11-25T03:54:12.619Z,89.72
2022-11-25T03:55:35.439Z,81.78
2022-11-25T03:56:39.646Z,81.75
2022-11-25T03:57:43.768Z,84.38
2022-11-25T03:58:48.807Z,82.40
2022-11-25T03:59:52.245Z,84.30
2022-11-25T04:00:56.128Z,81.20
2022-11-25T04:01:59.023Z,80.57
2022-11-25T04:03:02.921Z,80.68
2022-11-25T04:04:08.064Z,82.95
2022-11-25T04:05:11.817Z,79.78
2022-11-25T04:06:14.599Z,80.80
2022-11-25T04:07:18.471Z,78.95
2022-11-25T04:08:21.860Z,77.22
2022-11-25T04:09:26.398Z,75.97
2022-11-25T04:10:31.099Z,81.80
2022-11-25T04:11:54.119Z,79.28
2022-11-25T04:12:59.626Z,80.70
2022-11-25T04:14:09.951Z,87.78
2022-11-25T04:15:14.096Z,80.40
2022-11-25T04:16:20.984Z,85.63
2022-11-25T04:17:24.810Z,84.65
2022-11-25T04:18:27.868Z,87.20
2022-11-25T04:19:35.014Z,87.88
2022-11-25T04:20:39.589Z,80.95
2022-11-25T04:21:46.787Z,84.22
2022-11-25T04:22:53.267Z,86.60
2022-11-25T04:23:56.597Z,87.05
2022-11-25T04:25:00.307Z,83.40
2022-11-25T04:26:04.163Z,90.85
2022-11-25T04:27:11.878Z,91.82
2022-11-25T04:28:17.017Z,91.78
2022-11-25T04:29:20.095Z,82.72
2022-11-25T04:30:25.654Z,79.18
2022-11-25T04:31:29.332Z,86.63
2022-11-25T04:32:33.236Z,89.38
2022-11-25T04:33:36.167Z,83.72
2022-11-25T04:34:40.182Z,85.68
2022-11-25T04:35:43.960Z,80.80
2022-11-25T04:36:48.730Z,82.10
2022-11-25T04:37:52.007Z,87.15
2022-11-25T04:38:56.450Z,84.70
2022-11-25T04:39:59.393Z,77.70
2022-11-25T04:41:03.648Z,78.30
2022-11-25T04:42:31.888Z,76.90
2022-11-25T04:43:38.689Z,65.50
2022-11-25T04:45:01.363Z,73.78
2022-11-25T04:46:14.955Z,74.88
2022-11-25T04:47:21.399Z,76.13
2022-11-25T04:48:25.248Z,77.50
2022-11-25T04:49:28.000Z,86.75
2022-11-25T04:50:31.798Z,82.97
2022-11-25T04:51:43.100Z,77.22
2022-11-25T04:52:48.141Z,83.38
2022-11-25T04:53:50.973Z,83.30
2022-11-25T04:54:54.880Z,87.75
2022-11-25T04:55:58.419Z,89.15
2022-11-25T04:57:02.274Z,88.50
2022-11-25T04:58:05.167Z,78.18
2022-11-25T04:59:29.578Z,78.95
2022-11-25T05:00:33.565Z,79.05
2022-11-25T05:01:36.944Z,75.68
2022-11-25T05:02:53.893Z,74.43
2022-11-25T05:03:58.677Z,73.28
2022-11-25T05:05:04.260Z,74.25
2022-11-25T05:06:07.565Z,77.95
2022-11-25T05:07:13.232Z,78.43
2022-11-25T05:08:17.319Z,84.95
2022-11-25T05:09:21.110Z,84.05
2022-11-25T05:10:33.717Z,75.60
2022-11-25T05:11:36.567Z,90.40
2022-11-25T05:12:40.787Z,84.13
2022-11-25T05:13:48.217Z,75.28
2022-11-25T05:14:53.549Z,88.28
2022-11-25T05:16:00.035Z,92.82
2022-11-25T05:17:04.549Z,83.85
2022-11-25T05:18:07.471Z,82.60
2022-11-25T05:19:21.408Z,81.03
2022-11-25T05:20:24.675Z,75.43
2022-11-25T05:21:30.165Z,78.72
2022-11-25T05:22:34.036Z,85.78
2022-11-25T05:23:38.616Z,87.72
2022-11-25T05:24:41.480Z,76.72
2022-11-25T05:25:45.278Z,75.88
2022-11-25T05:27:22.218Z,80.68
2022-11-25T05:28:25.228Z,74.95
2022-11-25T05:29:29.557Z,91.63
2022-11-25T05:30:33.757Z,81.93
2022-11-25T05:31:37.673Z,95.55
2022-11-25T05:32:40.893Z,95.97
2022-11-25T05:33:47.360Z,106.50
2022-11-25T05:34:51.327Z,92.22
2022-11-25T05:35:56.716Z,94.57
2022-11-25T05:37:02.893Z,93.68
2022-11-25T05:38:07.267Z,80.65
2022-11-25T05:39:11.329Z,90.75
2022-11-25T05:40:33.886Z,74.47
2022-11-25T05:41:45.341Z,77.18
2022-11-25T05:42:48.171Z,82.40
2022-11-25T05:43:53.518Z,84.32
2022-11-25T05:44:56.388Z,88.53
2022-11-25T05:46:05.381Z,87.20
2022-11-25T05:47:09.340Z,93.45
2022-11-25T05:48:13.407Z,90.72
2022-11-25T05:49:19.042Z,83.40
2022-11-25T05:50:22.264Z,96.97
2022-11-25T05:51:39.897Z,77.63
2022-11-25T05:52:42.638Z,69.32
2022-11-25T05:53:46.535Z,71.82
2022-11-25T05:54:52.181Z,70.35
2022-11-25T05:56:02.939Z,67.68
2022-11-25T05:57:36.012Z,60.33
2022-11-25T05:58:42.106Z,70.13
2022-11-25T05:59:46.219Z,68.60
2022-11-25T06:01:01.108Z,72.28
2022-11-25T06:02:05.191Z,75.95
2022-11-25T06:03:08.509Z,70.53
2022-11-25T06:04:13.206Z,74.57
2022-11-25T06:05:16.146Z,75.85
2022-11-25T06:06:20.237Z,80.28
2022-11-25T06:07:23.649Z,75.88
2022-11-25T06:08:27.477Z,75.60
2022-11-25T06:09:31.308Z,88.78
2022-11-25T06:10:35.157Z,81.72
2022-11-25T06:11:39.016Z,90.07
2022-11-25T06:12:42.335Z,76.10
2022-11-25T06:13:47.154Z,78.68
2022-11-25T06:14:51.098Z,71.00
2022-11-25T06:15:54.910Z,77.00
2022-11-25T06:16:59.149Z,79.10
2022-11-25T06:18:14.351Z,78.35
2022-11-25T06:19:17.098Z,76.85
2022-11-25T06:20:20.930Z,81.00
2022-11-25T06:21:24.679Z,88.93
2022-11-25T06:22:27.348Z,85.05
2022-11-25T06:23:31.728Z,102.00
2022-11-25T06:24:35.178Z,113.75
2022-11-25T06:25:43.069Z,106.55
2022-11-25T06:26:45.727Z,113.05
2022-11-25T06:28:13.655Z,111.30
2022-11-25T06:29:13.209Z,90.10
2022-11-25T06:30:19.639Z,107.15
2022-11-25T06:31:35.257Z,95.88
2022-11-25T06:33:02.571Z,99.80
2022-11-25T06:34:09.397Z,97.13
2022-11-25T06:35:13.889Z,98.07
2022-11-25T06:36:37.879Z,93.82
2022-11-25T06:37:41.532Z,102.78
2022-11-25T06:38:45.558Z,103.47
2022-11-25T06:39:48.246Z,94.03
2022-11-25T06:40:54.104Z,95.07
2022-11-25T06:41:59.142Z,94.18
2022-11-25T06:43:02.915Z,90.88
2022-11-25T06:44:06.882Z,92.82
2022-11-25T06:45:10.507Z,78.53
2022-11-25T06:46:21.122Z,87.03
2022-11-25T06:47:27.007Z,90.70
2022-11-25T06:48:32.178Z,81.75
2022-11-25T06:49:35.247Z,90.03
2022-11-25T06:50:39.067Z,100.55
2022-11-25T06:51:41.815Z,107.25
2022-11-25T06:52:45.757Z,93.47
2022-11-25T06:53:48.600Z,94.72
2022-11-25T06:54:53.969Z,94.30
2022-11-25T06:56:04.463Z,96.35
2022-11-25T06:57:08.368Z,86.43
2022-11-25T06:58:34.540Z,86.82
2022-11-25T06:59:34.960Z,75.35
2022-11-25T07:00:37.679Z,77.53
2022-11-25T07:01:41.503Z,88.10
2022-11-25T07:02:48.322Z,90.20
2022-11-25T07:03:55.298Z,89.05
2022-11-25T07:04:57.998Z,100.18
2022-11-25T07:06:02.283Z,106.03
2022-11-25T07:07:06.461Z,103.70
2022-11-25T07:08:09.178Z,102.78
2022-11-25T07:09:12.944Z,108.95
2022-11-25T07:10:15.759Z,102.25
2022-11-25T07:11:21.208Z,101.22
2022-11-25T07:12:24.917Z,94.65
2022-11-25T07:13:27.559Z,92.97
2022-11-25T07:14:31.329Z,90.10
2022-11-25T07:15:35.068Z,90.97
2022-11-25T07:16:39.551Z,91.07
2022-11-25T07:17:43.300Z,104.57
2022-11-25T07:18:46.080Z,99.63
2022-11-25T07:19:51.197Z,90.82
2022-11-25T07:20:53.880Z,92.93
2022-11-25T07:21:57.587Z,88.57
2022-11-25T07:23:00.248Z,87.60
2022-11-25T07:24:06.408Z,88.30
2022-11-25T07:25:11.009Z,83.25
2022-11-25T07:26:16.747Z,85.95
2022-11-25T07:27:20.413Z,86.07
2022-11-25T07:28:24.190Z,84.38
2022-11-25T07:32:15.528Z,90.60
2022-11-25T07:33:18.227Z,80.55
2022-11-25T07:34:22.594Z,82.55
2022-11-25T07:35:26.679Z,88.35
2022-11-25T07:36:31.409Z,89.78
2022-11-25T07:37:34.239Z,91.43
2022-11-25T07:38:42.221Z,90.07
2022-11-25T07:39:50.031Z,95.32
2022-11-25T07:40:52.829Z,81.97
2022-11-25T07:41:56.649Z,95.97
2022-11-25T07:43:00.479Z,88.45
2022-11-25T07:44:05.786Z,92.00
2022-11-25T07:45:21.013Z,97.63
2022-11-25T07:46:31.143Z,93.88
2022-11-25T07:47:34.862Z,89.82
2022-11-25T07:48:38.808Z,94.15
2022-11-25T07:49:42.758Z,96.32
2022-11-25T07:50:47.596Z,103.60
2022-11-25T07:51:53.873Z,102.13
2022-11-25T07:52:56.568Z,106.63
2022-11-25T07:54:01.846Z,101.95
2022-11-25T07:55:05.078Z,111.95
2022-11-25T07:56:09.278Z,115.55
2022-11-25T07:57:13.106Z,113.18
2022-11-25T07:58:16.818Z,118.15
2022-11-25T07:59:22.457Z,114.10
2022-11-25T08:00:25.370Z,117.47
2022-11-25T08:01:29.607Z,123.63
2022-11-25T08:02:33.450Z,125.88
2022-11-25T08:03:37.336Z,129.65
2022-11-25T08:04:41.216Z,126.82
2022-11-25T08:05:43.881Z,117.20
2022-11-25T08:06:50.772Z,131.20
2022-11-25T08:07:53.951Z,114.70
2022-11-25T08:08:59.179Z,126.38
2022-11-25T08:10:02.993Z,125.43
2022-11-25T08:11:06.899Z,132.52
2022-11-25T08:12:10.759Z,138.02
2022-11-25T08:13:13.468Z,105.88
2022-11-25T08:14:17.589Z,116.40
2022-11-25T08:15:20.281Z,110.72
2022-11-25T08:16:26.582Z,115.40
2022-11-25T08:17:30.678Z,119.72
2022-11-25T08:18:33.924Z,114.80
2022-11-25T08:19:38.015Z,111.97
2022-11-25T08:20:41.000Z,109.70
2022-11-25T08:21:44.857Z,110.38
2022-11-25T08:22:50.363Z,109.18
2022-11-25T08:23:54.577Z,113.13
2022-11-25T08:24:57.416Z,118.78
2022-11-25T08:26:05.047Z,102.90
2022-11-25T08:27:07.881Z,107.25
2022-11-25T08:28:11.746Z,105.93
2022-11-25T08:29:16.919Z,106.25
2022-11-25T08:30:24.712Z,113.97
2022-11-25T08:31:30.598Z,115.78
2022-11-25T08:32:38.935Z,98.72
2022-11-25T08:33:42.090Z,102.13
2022-11-25T08:34:45.918Z,94.97
2022-11-25T08:35:54.551Z,91.47
2022-11-25T08:36:58.498Z,86.03
2022-11-25T08:38:03.177Z,89.90
2022-11-25T08:39:29.069Z,90.28
2022-11-25T08:40:32.604Z,88.18
2022-11-25T08:41:38.109Z,90.10
2022-11-25T08:42:40.911Z,88.38
2022-11-25T08:43:44.739Z,87.68
2022-11-25T08:44:53.352Z,94.53
2022-11-25T08:45:56.159Z,95.80
2022-11-25T08:47:00.148Z,92.95
2022-11-25T08:48:04.722Z,93.43
2022-11-25T08:49:10.267Z,98.63
2022-11-25T08:50:14.531Z,96.35
2022-11-25T08:51:20.108Z,94.60
2022-11-25T08:52:24.451Z,98.40
2022-11-25T08:53:28.632Z,100.38
2022-11-25T08:54:32.398Z,102.85
2022-11-25T08:55:37.268Z,98.68
2022-11-25T08:56:41.017Z,98.28
2022-11-25T08:57:44.700Z,100.75
2022-11-25T08:58:49.073Z,101.88
2022-11-25T08:59:52.858Z,97.90
2022-11-25T09:00:55.560Z,102.85
2022-11-25T09:01:59.628Z,113.13
2022-11-25T09:03:04.381Z,110.45
2022-11-25T09:04:08.330Z,114.43
2022-11-25T09:05:13.105Z,111.45
2022-11-25T09:06:16.950Z,103.88
2022-11-25T09:07:22.181Z,97.95
2022-11-25T09:08:31.430Z,97.43
2022-11-25T09:09:36.044Z,89.63
2022-11-25T09:10:39.859Z,98.65
2022-11-25T09:11:43.768Z,98.70
2022-11-25T09:12:46.587Z,100.97
2022-11-25T09:13:50.328Z,115.25
2022-11-25T09:14:54.151Z,108.70
2022-11-25T09:15:57.633Z,106.53
2022-11-25T09:17:02.254Z,114.72
2022-11-25T09:18:08.408Z,115.07
2022-11-25T09:19:12.200Z,117.40
2022-11-25T09:20:15.908Z,131.63
2022-11-25T09:21:19.980Z,135.63
2022-11-25T09:22:22.892Z,157.27
2022-11-25T09:23:26.808Z,110.07
2022-11-25T09:24:32.009Z,133.77
2022-11-25T09:25:36.337Z,113.38
2022-11-25T09:26:41.299Z,105.25
2022-11-25T09:27:44.229Z,113.50
2022-11-25T09:28:48.012Z,112.15
2022-11-25T09:29:51.897Z,107.70
2022-11-25T09:30:54.926Z,105.32
2022-11-25T09:31:58.910Z,99.03
2022-11-25T09:33:02.784Z,95.40
2022-11-25T09:34:08.261Z,92.93
2022-11-25T09:35:11.234Z,90.10
2022-11-25T09:36:16.548Z,79.82
2022-11-25T09:37:19.298Z,103.57
2022-11-25T09:38:23.448Z,106.65
2022-11-25T09:39:30.142Z,89.65
2022-11-25T09:40:41.210Z,81.68
2022-11-25T09:42:13.545Z,87.43
2022-11-25T09:43:43.039Z,84.00
2022-11-25T09:45:14.559Z,88.15
2022-11-25T09:46:46.319Z,88.72
2022-11-25T09:47:58.068Z,86.93
2022-11-25T09:49:08.993Z,89.78
2022-11-25T09:50:19.110Z,92.53
2022-11-25T09:51:24.569Z,95.72
2022-11-25T09:52:55.130Z,96.43
2022-11-25T09:54:05.024Z,99.10
2022-11-25T09:55:10.630Z,91.57
2022-11-25T09:56:26.770Z,87.03
2022-11-25T09:57:40.819Z,75.15
2022-11-25T09:58:49.879Z,77.22
2022-11-25T10:00:03.725Z,77.10
2022-11-25T10:01:20.314Z,79.68
2022-11-25T10:02:27.046Z,77.47
2022-11-25T10:03:35.931Z,77.78
2022-11-25T10:04:43.846Z,80.22
2022-11-25T10:05:52.849Z,69.97
2022-11-25T10:07:01.373Z,69.72
2022-11-25T10:08:10.169Z,70.07
2022-11-25T10:09:16.259Z,61.67
2022-11-25T10:10:23.648Z,63.65
2022-11-25T10:11:36.158Z,76.38
2022-11-25T10:12:43.819Z,64.97
2022-11-25T10:13:53.360Z,66.70
2022-11-25T10:15:02.202Z,63.42
2022-11-25T10:16:07.968Z,64.00
2022-11-25T10:17:16.890Z,63.63
2022-11-25T10:18:27.037Z,57.80
2022-11-25T10:19:40.271Z,61.35
2022-11-25T10:20:44.435Z,61.53
2022-11-25T10:21:47.417Z,59.75
2022-11-25T10:22:53.389Z,59.20
2022-11-25T10:23:56.149Z,57.22
2022-11-25T10:25:01.798Z,57.25
2022-11-25T10:26:13.139Z,57.33
2022-11-25T10:27:22.121Z,56.83
2022-11-25T10:28:27.557Z,55.97
2022-11-25T10:29:31.731Z,56.05
2022-11-25T10:30:37.921Z,55.25
2022-11-25T10:31:42.927Z,56.30
2022-11-25T10:32:51.064Z,53.10
2022-11-25T10:33:57.489Z,53.33
2022-11-25T10:35:04.757Z,55.00
2022-11-25T10:36:12.462Z,53.88
2022-11-25T10:37:27.538Z,56.65
2022-11-25T10:38:38.189Z,55.75
2022-11-25T10:39:40.958Z,54.42
2022-11-25T10:40:45.880Z,54.25
2022-11-25T10:41:54.543Z,54.95
2022-11-25T10:43:00.001Z,53.75
2022-11-25T10:44:02.767Z,55.25
2022-11-25T10:45:09.261Z,55.70
2022-11-25T10:46:18.325Z,53.97
2022-11-25T10:47:30.478Z,55.33
2022-11-25T10:48:47.956Z,57.95
2022-11-25T10:50:09.300Z,55.72
2022-11-25T10:51:25.472Z,55.20
2022-11-25T10:52:31.445Z,56.05
2022-11-25T10:53:35.388Z,56.55
2022-11-25T10:54:39.367Z,57.08
2022-11-25T10:55:59.219Z,55.88
2022-11-25T10:57:04.436Z,54.88
2022-11-25T10:58:27.313Z,58.72
2022-11-25T10:59:33.182Z,56.30
2022-11-25T11:00:38.798Z,56.38
2022-11-25T11:01:41.538Z,55.50
2022-11-25T11:02:49.031Z,52.20
2022-11-25T11:03:54.606Z,52.45
2022-11-25T11:05:01.301Z,54.05
2022-11-25T11:06:05.208Z,53.00
2022-11-25T11:07:09.501Z,53.47
2022-11-25T11:08:21.048Z,54.70
2022-11-25T11:09:37.960Z,53.08
2022-11-25T11:10:41.859Z,54.33
2022-11-25T11:11:49.377Z,50.63
2022-11-25T11:12:56.951Z,52.28
2022-11-25T11:14:21.332Z,52.65
2022-11-25T11:15:25.718Z,51.58
2022-11-25T11:16:32.138Z,54.22
2022-11-25T11:17:37.523Z,55.15
2022-11-25T11:18:42.868Z,54.15
2022-11-25T11:20:01.456Z,52.95
2022-11-25T11:21:07.522Z,54.78
2022-11-25T11:22:18.817Z,53.75
2022-11-25T11:23:22.979Z,52.22
2022-11-25T11:24:32.364Z,52.17
2022-11-25T11:25:36.445Z,51.58
2022-11-25T11:26:40.177Z,50.08
2022-11-25T11:27:42.848Z,50.58
2022-11-25T11:28:46.526Z,50.67
2022-11-25T11:30:10.040Z,50.63
2022-11-25T11:31:19.747Z,52.05
2022-11-25T11:32:25.569Z,50.22
2022-11-25T11:33:37.924Z,49.85
2022-11-25T11:34:55.068Z,51.22
2022-11-25T11:36:09.381Z,49.83
2022-11-25T11:37:24.560Z,49.05
2022-11-25T11:38:34.900Z,46.67
2022-11-25T11:39:55.149Z,48.25
2022-11-25T11:41:06.677Z,47.38
2022-11-25T11:42:15.630Z,47.85
2022-11-25T11:43:29.680Z,46.83
2022-11-25T11:44:39.709Z,47.30
2022-11-25T11:45:55.939Z,46.10
2022-11-25T11:47:18.019Z,47.85
2022-11-25T11:48:26.507Z,48.22
2022-11-25T11:49:54.783Z,50.60
2022-11-25T11:51:04.848Z,49.75
2022-11-25T11:52:12.246Z,51.67
2022-11-25T11:53:23.677Z,50.95
2022-11-25T11:54:32.603Z,52.90
2022-11-25T11:55:44.427Z,48.70
2022-11-25T11:56:55.207Z,45.90
2022-11-25T11:58:04.720Z,46.20
2022-11-25T11:59:22.259Z,45.80
2022-11-25T12:00:27.329Z,45.53
2022-11-25T12:01:41.953Z,44.60
2022-11-25T12:02:55.805Z,44.00
2022-11-25T12:04:02.449Z,43.88
2022-11-25T12:05:15.277Z,44.47
2022-11-25T12:06:18.979Z,44.20
2022-11-25T12:07:25.894Z,44.83
2022-11-25T12:08:33.523Z,44.97
2022-11-25T12:09:40.716Z,45.20
2022-11-25T12:10:47.389Z,45.70
2022-11-25T12:11:54.150Z,46.83
2022-11-25T12:13:04.868Z,44.65
2022-11-25T12:14:11.052Z,44.85
2022-11-25T12:15:20.790Z,46.90
2022-11-25T12:16:29.102Z,47.25
2022-11-25T12:17:39.350Z,47.10
2022-11-25T12:18:46.727Z,46.63
2022-11-25T12:19:55.199Z,45.85
2022-11-25T12:21:02.484Z,45.63
2022-11-25T12:22:09.961Z,46.92
2022-11-25T12:23:18.770Z,46.17
2022-11-25T12:24:26.599Z,44.30
2022-11-25T12:25:33.179Z,46.15
2022-11-25T12:26:41.196Z,48.33
2022-11-25T12:27:47.189Z,49.35
2022-11-25T12:28:55.172Z,51.00
2022-11-25T12:30:02.828Z,50.80
2022-11-25T12:31:14.587Z,55.63
2022-11-25T12:32:45.877Z,50.13
2022-11-25T12:33:57.387Z,54.00
2022-11-25T12:35:04.910Z,53.53
2022-11-25T12:36:12.220Z,53.70
2022-11-25T12:37:22.947Z,49.00
2022-11-25T12:38:35.139Z,49.42
2022-11-25T12:39:42.509Z,47.65
2022-11-25T12:40:48.408Z,48.10
2022-11-25T12:41:55.039Z,45.22
2022-11-25T12:43:06.991Z,46.60
2022-11-25T12:44:16.640Z,43.75
2022-11-25T12:45:22.733Z,44.00
2022-11-25T12:46:32.603Z,44.05
2022-11-25T12:47:35.437Z,43.70
2022-11-25T12:48:42.841Z,43.80
2022-11-25T12:49:48.722Z,43.83
2022-11-25T12:50:59.157Z,43.55
2022-11-25T12:52:27.358Z,41.60
2022-11-25T12:53:35.400Z,42.53
2022-11-25T12:55:03.604Z,44.22
2022-11-25T12:56:13.088Z,43.90
2022-11-25T12:57:52.709Z,43.17
2022-11-25T12:59:12.174Z,44.53
2022-11-25T13:01:58.891Z,42.55
2022-11-25T13:03:31.497Z,43.00
2022-11-25T13:04:58.056Z,40.38
2022-11-25T13:06:39.988Z,40.72
2022-11-25T13:07:46.917Z,40.60
2022-11-25T13:08:56.462Z,40.65
2022-11-25T13:10:27.317Z,40.67
2022-11-25T13:11:50.117Z,42.45
2022-11-25T13:13:06.135Z,42.17
2022-11-25T13:14:18.589Z,40.38
2022-11-25T13:15:27.777Z,45.83
2022-11-25T13:16:33.102Z,43.80
2022-11-25T13:17:40.052Z,44.45
2022-11-25T13:18:45.265Z,45.95
2022-11-25T13:19:49.342Z,56.83
2022-11-25T13:20:53.941Z,44.85
2022-11-25T13:21:58.408Z,42.72
2022-11-25T13:23:10.484Z,53.92
2022-11-25T13:24:29.257Z,51.90
2022-11-25T13:25:32.473Z,47.90
2022-11-25T13:26:52.843Z,45.92
2022-11-25T13:28:00.856Z,48.78
2022-11-25T13:29:07.509Z,53.72
2022-11-25T13:30:38.129Z,54.22
2022-11-25T13:31:59.366Z,53.08
2022-11-25T13:33:46.354Z,45.60
2022-11-25T13:34:51.446Z,42.95
2022-11-25T13:35:55.990Z,45.28
2022-11-25T13:37:00.019Z,45.22
2022-11-25T13:38:26.520Z,44.38
2022-11-25T13:39:32.556Z,48.90
2022-11-25T13:40:38.665Z,46.60
2022-11-25T13:41:46.120Z,46.35
2022-11-25T13:42:50.441Z,47.25
2022-11-25T13:44:01.713Z,44.40
2022-11-25T13:45:06.931Z,42.58
2022-11-25T13:46:09.649Z,44.80
2022-11-25T13:47:40.552Z,67.55
2022-11-25T13:48:44.737Z,40.10
2022-11-25T13:49:54.486Z,43.08
2022-11-25T13:51:16.899Z,43.63
2022-11-25T13:52:34.439Z,44.13
2022-11-25T13:53:38.890Z,43.38
2022-11-25T13:54:45.805Z,42.88
2022-11-25T13:55:51.259Z,54.92
2022-11-25T13:57:25.236Z,56.20
2022-11-25T13:58:36.063Z,42.03
2022-11-25T13:59:49.754Z,49.92
2022-11-25T14:01:26.327Z,45.55
2022-11-25T14:02:42.138Z,42.58
2022-11-25T14:03:47.615Z,41.42
2022-11-25T14:04:57.378Z,58.67
2022-11-25T14:06:05.358Z,65.75
2022-11-25T14:07:20.184Z,80.78
2022-11-25T14:08:36.459Z,65.13
2022-11-25T14:09:51.621Z,47.45
2022-11-25T14:11:04.922Z,45.83
2022-11-25T14:12:23.236Z,46.58
2022-11-25T14:13:59.781Z,41.35
2022-11-25T14:15:31.537Z,40.33
2022-11-25T14:16:46.201Z,46.95
2022-11-25T14:18:17.869Z,48.00
2022-11-25T14:19:51.548Z,51.38
2022-11-25T14:21:00.998Z,73.35
2022-11-25T14:22:12.519Z,72.70